sensor_id;sensor_type;location;lat;lon;timestamp;pressure;altitude;pressure_sealevel;temperature;humidity
84781;BME280;75011;50.086;19.886;2024-03-07T00:01:25;99369.19;;;3.24;83.78
84781;BME280;75011;50.086;19.886;2024-03-07T00:04:25;99371.22;;;3.22;83.61
84781;BME280;75011;50.086;19.886;2024-03-07T00:07:26;99373.22;;;3.19;83.85
84781;BME280;75011;50.086;19.886;2024-03-07T00:10:26;99368.94;;;3.18;83.89
84781;BME280;75011;50.086;19.886;2024-03-07T00:13:28;99382.22;;;3.18;83.88
84781;BME280;75011;50.086;19.886;2024-03-07T00:16:29;99369.78;;;3.19;83.72
84781;BME280;75011;50.086;19.886;2024-03-07T00:19:29;99384.44;;;3.15;83.74
84781;BME280;75011;50.086;19.886;2024-03-07T00:22:30;99381.38;;;3.11;83.83
84781;BME280;75011;50.086;19.886;2024-03-07T00:25:30;99373.41;;;3.11;84.02
84781;BME280;75011;50.086;19.886;2024-03-07T00:28:32;99381.38;;;3.11;83.78
84781;BME280;75011;50.086;19.886;2024-03-07T00:31:33;99378.47;;;3.06;83.88
84781;BME280;75011;50.086;19.886;2024-03-07T00:34:33;99376.84;;;3.05;84.08
84781;BME280;75011;50.086;19.886;2024-03-07T00:37:34;99381.13;;;3.06;84.11
84781;BME280;75011;50.086;19.886;2024-03-07T00:40:34;99383.13;;;3.04;84.05
84781;BME280;75011;50.086;19.886;2024-03-07T00:43:36;99371.31;;;3.07;84.07
84781;BME280;75011;50.086;19.886;2024-03-07T00:46:37;99378.72;;;3.11;84.05
84781;BME280;75011;50.086;19.886;2024-03-07T00:49:37;99380.34;;;3.12;84.01
84781;BME280;75011;50.086;19.886;2024-03-07T00:52:38;99379.50;;;3.12;83.63
84781;BME280;75011;50.086;19.886;2024-03-07T00:55:39;99376.00;;;3.05;83.77
84781;BME280;75011;50.086;19.886;2024-03-07T00:58:40;99373.56;;;3.03;84.07
84781;BME280;75011;50.086;19.886;2024-03-07T01:01:41;99374.56;;;3.02;84.08
84781;BME280;75011;50.086;19.886;2024-03-07T01:04:41;99374.56;;;3.02;84.13
84781;BME280;75011;50.086;19.886;2024-03-07T01:07:42;99372.94;;;3.01;83.97
84781;BME280;75011;50.086;19.886;2024-03-07T01:10:42;99374.19;;;3.05;84.18
84781;BME280;75011;50.086;19.886;2024-03-07T01:13:44;99366.59;;;3.02;83.91
84781;BME280;75011;50.086;19.886;2024-03-07T01:16:45;99373.78;;;3.08;84.04
84781;BME280;75011;50.086;19.886;2024-03-07T01:19:45;99366.84;;;3.07;83.83
84781;BME280;75011;50.086;19.886;2024-03-07T01:22:46;99360.28;;;3.03;83.82
84781;BME280;75011;50.086;19.886;2024-03-07T01:25:46;99375.00;;;3.06;83.74
84781;BME280;75011;50.086;19.886;2024-03-07T01:28:48;99369.69;;;3.06;84.34
84781;BME280;75011;50.086;19.886;2024-03-07T01:31:48;99373.41;;;3.11;83.70
84781;BME280;75011;50.086;19.886;2024-03-07T01:34:49;99370.75;;;3.11;83.40
84781;BME280;75011;50.086;19.886;2024-03-07T01:37:49;99372.97;;;3.08;83.45
84781;BME280;75011;50.086;19.886;2024-03-07T01:40:50;99368.28;;;3.10;83.54
84781;BME280;75011;50.086;19.886;2024-03-07T01:43:52;99362.34;;;3.08;83.56
84781;BME280;75011;50.086;19.886;2024-03-07T01:46:52;99374.19;;;3.05;83.53
84781;BME280;75011;50.086;19.886;2024-03-07T01:49:53;99371.91;;;3.02;83.90
84781;BME280;75011;50.086;19.886;2024-03-07T01:52:54;99369.47;;;3.01;83.47
84781;BME280;75011;50.086;19.886;2024-03-07T01:55:56;99363.72;;;2.97;83.43
84781;BME280;75011;50.086;19.886;2024-03-07T01:58:59;99361.06;;;2.97;83.41
84781;BME280;75011;50.086;19.886;2024-03-07T02:02:01;99365.50;;;2.90;83.46
84781;BME280;75011;50.086;19.886;2024-03-07T02:05:02;99364.47;;;2.91;83.23
84781;BME280;75011;50.086;19.886;2024-03-07T02:08:04;99358.16;;;2.92;83.22
84781;BME280;75011;50.086;19.886;2024-03-07T02:11:04;99353.09;;;2.97;82.84
84781;BME280;75011;50.086;19.886;2024-03-07T02:14:06;99355.50;;;2.92;83.04
84781;BME280;75011;50.086;19.886;2024-03-07T02:17:07;99356.09;;;2.88;83.00
84781;BME280;75011;50.086;19.886;2024-03-07T02:20:09;99350.97;;;2.86;82.84
84781;BME280;75011;50.086;19.886;2024-03-07T02:23:11;99344.69;;;2.94;83.03
84781;BME280;75011;50.086;19.886;2024-03-07T02:26:11;99350.19;;;2.92;82.89
84781;BME280;75011;50.086;19.886;2024-03-07T02:29:12;99354.28;;;2.95;82.72
84781;BME280;75011;50.086;19.886;2024-03-07T02:32:12;99353.28;;;2.96;82.56
84781;BME280;75011;50.086;19.886;2024-03-07T02:35:13;99339.81;;;2.97;82.55
84781;BME280;75011;50.086;19.886;2024-03-07T02:38:15;99345.56;;;3.01;82.50
84781;BME280;75011;50.086;19.886;2024-03-07T02:41:15;99350.44;;;2.97;82.57
84781;BME280;75011;50.086;19.886;2024-03-07T02:44:16;99346.72;;;2.92;82.58
84781;BME280;75011;50.086;19.886;2024-03-07T02:47:16;99355.66;;;2.84;82.72
84781;BME280;75011;50.086;19.886;2024-03-07T02:50:17;99364.16;;;2.73;82.81
84781;BME280;75011;50.086;19.886;2024-03-07T02:53:19;99358.19;;;2.71;82.74
84781;BME280;75011;50.086;19.886;2024-03-07T02:56:19;99363.66;;;2.63;82.72
84781;BME280;75011;50.086;19.886;2024-03-07T02:59:20;99364.47;;;2.64;82.80
84781;BME280;75011;50.086;19.886;2024-03-07T03:02:20;99360.56;;;2.60;82.82
84781;BME280;75011;50.086;19.886;2024-03-07T03:05:21;99366.69;;;2.60;82.71
84781;BME280;75011;50.086;19.886;2024-03-07T03:08:23;99368.91;;;2.57;82.78
84781;BME280;75011;50.086;19.886;2024-03-07T03:11:24;99363.16;;;2.53;83.00
84781;BME280;75011;50.086;19.886;2024-03-07T03:14:24;99362.78;;;2.56;82.75
84781;BME280;75011;50.086;19.886;2024-03-07T03:17:25;99374.03;;;2.58;82.95
84781;BME280;75011;50.086;19.886;2024-03-07T03:20:25;99368.31;;;2.61;82.61
84781;BME280;75011;50.086;19.886;2024-03-07T03:23:27;99368.53;;;2.60;82.63
84781;BME280;75011;50.086;19.886;2024-03-07T03:26:28;99367.69;;;2.59;82.61
84781;BME280;75011;50.086;19.886;2024-03-07T03:29:28;99369.09;;;2.55;82.64
84781;BME280;75011;50.086;19.886;2024-03-07T03:32:29;99367.00;;;2.50;82.72
84781;BME280;75011;50.086;19.886;2024-03-07T03:35:29;99366.84;;;2.52;82.49
84781;BME280;75011;50.086;19.886;2024-03-07T03:38:31;99367.00;;;2.50;82.49
84781;BME280;75011;50.086;19.886;2024-03-07T03:41:32;99369.63;;;2.44;82.65
84781;BME280;75011;50.086;19.886;2024-03-07T03:44:32;99372.88;;;2.46;82.49
84781;BME280;75011;50.086;19.886;2024-03-07T03:47:33;99375.53;;;2.46;82.49
84781;BME280;75011;50.086;19.886;2024-03-07T03:50:34;99375.75;;;2.44;82.56
84781;BME280;75011;50.086;19.886;2024-03-07T03:53:36;99375.66;;;2.38;82.52
84781;BME280;75011;50.086;19.886;2024-03-07T03:56:36;99379.16;;;2.38;82.54
84781;BME280;75011;50.086;19.886;2024-03-07T03:59:37;99374.47;;;2.40;82.36
84781;BME280;75011;50.086;19.886;2024-03-07T04:02:38;99379.78;;;2.40;82.15
84781;BME280;75011;50.086;19.886;2024-03-07T04:05:38;99370.00;;;2.41;82.33
84781;BME280;75011;50.086;19.886;2024-03-07T04:08:40;99377.53;;;2.37;82.30
84781;BME280;75011;50.086;19.886;2024-03-07T04:11:41;99370.38;;;2.38;82.50
84781;BME280;75011;50.086;19.886;2024-03-07T04:14:43;99375.03;;;2.36;82.47
84781;BME280;75011;50.086;19.886;2024-03-07T04:17:43;99379.34;;;2.37;82.13
84781;BME280;75011;50.086;19.886;2024-03-07T04:20:44;99372.13;;;2.31;82.13
84781;BME280;75011;50.086;19.886;2024-03-07T04:23:46;99379.84;;;2.26;82.10
84781;BME280;75011;50.086;19.886;2024-03-07T04:26:46;99386.28;;;2.17;82.08
84781;BME280;75011;50.086;19.886;2024-03-07T04:29:47;99389.72;;;2.17;82.16
84781;BME280;75011;50.086;19.886;2024-03-07T04:32:47;99386.09;;;2.18;82.14
84781;BME280;75011;50.086;19.886;2024-03-07T04:35:48;99385.25;;;2.18;81.83
84781;BME280;75011;50.086;19.886;2024-03-07T04:38:50;99391.13;;;2.13;81.94
84781;BME280;75011;50.086;19.886;2024-03-07T04:41:51;99389.53;;;1.98;82.34
84781;BME280;75011;50.086;19.886;2024-03-07T04:44:51;99382.97;;;1.94;82.67
84781;BME280;75011;50.086;19.886;2024-03-07T04:47:52;99395.47;;;2.00;82.35
84781;BME280;75011;50.086;19.886;2024-03-07T04:50:52;99396.53;;;2.05;82.30
84781;BME280;75011;50.086;19.886;2024-03-07T04:53:54;99396.75;;;2.04;82.11
84781;BME280;75011;50.086;19.886;2024-03-07T04:56:55;99400.03;;;2.06;82.18
84781;BME280;75011;50.086;19.886;2024-03-07T04:59:55;99401.69;;;2.07;81.98
84781;BME280;75011;50.086;19.886;2024-03-07T05:02:56;99403.03;;;2.03;82.23
84781;BME280;75011;50.086;19.886;2024-03-07T05:05:56;99400.50;;;1.95;82.34
84781;BME280;75011;50.086;19.886;2024-03-07T05:08:58;99403.00;;;1.81;83.01
84781;BME280;75011;50.086;19.886;2024-03-07T05:11:59;99413.88;;;1.86;83.14
84781;BME280;75011;50.086;19.886;2024-03-07T05:14:59;99408.59;;;1.86;83.03
84781;BME280;75011;50.086;19.886;2024-03-07T05:18:00;99409.63;;;1.92;82.71
84781;BME280;75011;50.086;19.886;2024-03-07T05:21:00;99413.22;;;1.84;82.88
84781;BME280;75011;50.086;19.886;2024-03-07T05:24:03;99410.78;;;1.83;83.09
84781;BME280;75011;50.086;19.886;2024-03-07T05:27:04;99418.16;;;1.87;83.24
84781;BME280;75011;50.086;19.886;2024-03-07T05:30:06;99421.81;;;1.86;83.15
84781;BME280;75011;50.086;19.886;2024-03-07T05:33:06;99426.31;;;1.86;82.99
84781;BME280;75011;50.086;19.886;2024-03-07T05:36:07;99430.78;;;1.85;83.00
84781;BME280;75011;50.086;19.886;2024-03-07T05:39:09;99433.22;;;1.87;83.08
84781;BME280;75011;50.086;19.886;2024-03-07T05:42:10;99433.88;;;1.89;83.01
84781;BME280;75011;50.086;19.886;2024-03-07T05:45:11;99436.91;;;1.86;83.07
84781;BME280;75011;50.086;19.886;2024-03-07T05:48:14;99432.88;;;1.75;83.46
84781;BME280;75011;50.086;19.886;2024-03-07T05:51:15;99433.53;;;1.77;83.39
84781;BME280;75011;50.086;19.886;2024-03-07T05:54:17;99431.31;;;1.66;83.42
84781;BME280;75011;50.086;19.886;2024-03-07T05:57:17;99430.69;;;1.64;83.59
84781;BME280;75011;50.086;19.886;2024-03-07T06:00:18;99435.28;;;1.70;83.61
84781;BME280;75011;50.086;19.886;2024-03-07T06:03:19;99437.72;;;1.72;83.48
84781;BME280;75011;50.086;19.886;2024-03-07T06:06:19;99440.84;;;1.75;83.36
84781;BME280;75011;50.086;19.886;2024-03-07T06:09:21;99442.28;;;1.78;83.39
84781;BME280;75011;50.086;19.886;2024-03-07T06:12:22;99438.56;;;1.72;83.65
84781;BME280;75011;50.086;19.886;2024-03-07T06:15:22;99445.25;;;1.68;83.62
84781;BME280;75011;50.086;19.886;2024-03-07T06:18:23;99441.56;;;1.69;83.62
84781;BME280;75011;50.086;19.886;2024-03-07T06:21:23;99447.41;;;1.65;83.54
84781;BME280;75011;50.086;19.886;2024-03-07T06:24:25;99442.94;;;1.65;83.95
84781;BME280;75011;50.086;19.886;2024-03-07T06:27:25;99453.81;;;1.70;83.43
84781;BME280;75011;50.086;19.886;2024-03-07T06:30:26;99445.25;;;1.68;83.46
84781;BME280;75011;50.086;19.886;2024-03-07T06:33:26;99450.53;;;1.68;83.38
84781;BME280;75011;50.086;19.886;2024-03-07T06:36:27;99454.63;;;1.71;83.22
84781;BME280;75011;50.086;19.886;2024-03-07T06:39:29;99451.31;;;1.69;83.33
84781;BME280;75011;50.086;19.886;2024-03-07T06:42:29;99453.81;;;1.70;82.99
84781;BME280;75011;50.086;19.886;2024-03-07T06:45:30;99459.28;;;1.69;82.96
84781;BME280;75011;50.086;19.886;2024-03-07T06:48:30;99460.47;;;1.66;83.17
84781;BME280;75011;50.086;19.886;2024-03-07T06:51:31;99466.50;;;1.75;82.94
84781;BME280;75011;50.086;19.886;2024-03-07T06:54:33;99465.31;;;1.77;82.94
84781;BME280;75011;50.086;19.886;2024-03-07T06:57:33;99470.81;;;1.76;82.83
84781;BME280;75011;50.086;19.886;2024-03-07T07:00:34;99470.25;;;1.80;82.68
84781;BME280;75011;50.086;19.886;2024-03-07T07:03:34;99474.09;;;1.78;82.53
84781;BME280;75011;50.086;19.886;2024-03-07T07:06:35;99473.72;;;1.81;82.24
84781;BME280;75011;50.086;19.886;2024-03-07T07:09:37;99478.19;;;1.80;82.32
84781;BME280;75011;50.086;19.886;2024-03-07T07:12:37;99470.25;;;1.80;82.04
84781;BME280;75011;50.086;19.886;2024-03-07T07:15:38;99479.28;;;1.86;82.12
84781;BME280;75011;50.086;19.886;2024-03-07T07:18:38;99480.38;;;1.92;81.80
84781;BME280;75011;50.086;19.886;2024-03-07T07:21:39;99481.13;;;1.85;81.91
84781;BME280;75011;50.086;19.886;2024-03-07T07:24:41;99479.81;;;1.81;82.18
84781;BME280;75011;50.086;19.886;2024-03-07T07:27:43;99481.13;;;1.85;81.81
84781;BME280;75011;50.086;19.886;2024-03-07T07:30:43;99488.06;;;1.86;81.55
84781;BME280;75011;50.086;19.886;2024-03-07T07:33:44;99486.41;;;1.85;81.15
84781;BME280;75011;50.086;19.886;2024-03-07T07:36:44;99491.34;;;1.88;81.72
84781;BME280;75011;50.086;19.886;2024-03-07T07:39:46;99491.41;;;1.95;81.46
84781;BME280;75011;50.086;19.886;2024-03-07T07:42:48;99492.72;;;1.99;81.19
84781;BME280;75011;50.086;19.886;2024-03-07T07:45:49;99486.84;;;2.04;80.86
84781;BME280;75011;50.086;19.886;2024-03-07T07:48:50;99488.47;;;2.05;80.69
84781;BME280;75011;50.086;19.886;2024-03-07T07:51:50;99490.59;;;2.09;80.55
84781;BME280;75011;50.086;19.886;2024-03-07T07:54:52;99488.38;;;2.13;80.33
84781;BME280;75011;50.086;19.886;2024-03-07T07:57:53;99487.47;;;2.06;80.54
84781;BME280;75011;50.086;19.886;2024-03-07T08:00:54;99486.28;;;2.08;80.18
84781;BME280;75011;50.086;19.886;2024-03-07T08:03:55;99493.03;;;2.11;80.21
84781;BME280;75011;50.086;19.886;2024-03-07T08:06:55;99490.88;;;2.00;80.42
84781;BME280;75011;50.086;19.886;2024-03-07T08:09:57;99491.53;;;2.02;80.20
84781;BME280;75011;50.086;19.886;2024-03-07T08:12:58;99483.56;;;2.02;80.21
84781;BME280;75011;50.086;19.886;2024-03-07T08:15:59;99494.25;;;2.08;80.35
84781;BME280;75011;50.086;19.886;2024-03-07T08:18:59;99493.97;;;2.03;80.24
84781;BME280;75011;50.086;19.886;2024-03-07T08:22:00;99493.97;;;2.03;80.06
84781;BME280;75011;50.086;19.886;2024-03-07T08:25:02;99494.03;;;2.10;80.08
84781;BME280;75011;50.086;19.886;2024-03-07T08:28:03;99494.88;;;2.10;79.90
84781;BME280;75011;50.086;19.886;2024-03-07T08:31:04;99497.53;;;2.10;80.21
84781;BME280;75011;50.086;19.886;2024-03-07T08:34:04;99496.06;;;2.08;79.89
84781;BME280;75011;50.086;19.886;2024-03-07T08:37:05;99493.03;;;2.11;79.89
84781;BME280;75011;50.086;19.886;2024-03-07T08:40:08;99499.81;;;2.13;79.56
84781;BME280;75011;50.086;19.886;2024-03-07T08:43:09;99502.81;;;2.10;79.52
84781;BME280;75011;50.086;19.886;2024-03-07T08:46:10;99500.47;;;2.01;80.25
84781;BME280;75011;50.086;19.886;2024-03-07T08:49:10;99498.81;;;2.00;79.79
84781;BME280;75011;50.086;19.886;2024-03-07T08:52:11;99501.59;;;1.92;80.27
84781;BME280;75011;50.086;19.886;2024-03-07T08:55:14;99480.75;;;1.88;80.16
84781;BME280;75011;50.086;19.886;2024-03-07T08:58:14;99504.09;;;2.00;79.91
84781;BME280;75011;50.086;19.886;2024-03-07T09:01:15;99508.13;;;2.10;79.57
84781;BME280;75011;50.086;19.886;2024-03-07T09:04:15;99508.13;;;2.10;79.78
84781;BME280;75011;50.086;19.886;2024-03-07T09:07:16;99505.31;;;2.12;79.58
84781;BME280;75011;50.086;19.886;2024-03-07T09:10:18;99503.47;;;1.98;79.66
84781;BME280;75011;50.086;19.886;2024-03-07T09:13:19;99510.50;;;2.05;80.04
84781;BME280;75011;50.086;19.886;2024-03-07T09:16:19;99510.03;;;2.16;79.48
84781;BME280;75011;50.086;19.886;2024-03-07T09:19:20;99515.78;;;2.20;79.34
84781;BME280;75011;50.086;19.886;2024-03-07T09:22:20;99524.28;;;2.15;79.23
84781;BME280;75011;50.086;19.886;2024-03-07T09:25:22;99520.03;;;2.14;79.17
84781;BME280;75011;50.086;19.886;2024-03-07T09:28:23;99522.00;;;2.12;79.26
84781;BME280;75011;50.086;19.886;2024-03-07T09:31:23;99527.78;;;2.16;79.14
84781;BME280;75011;50.086;19.886;2024-03-07T09:34:24;99533.72;;;2.18;79.08
84781;BME280;75011;50.086;19.886;2024-03-07T09:37:25;99529.78;;;2.14;79.20
84781;BME280;75011;50.086;19.886;2024-03-07T09:40:27;99531.81;;;2.12;79.32
84781;BME280;75011;50.086;19.886;2024-03-07T09:43:28;99522.84;;;2.13;78.71
84781;BME280;75011;50.086;19.886;2024-03-07T09:46:30;99532.09;;;2.17;78.90
84781;BME280;75011;50.086;19.886;2024-03-07T09:49:32;99531.16;;;2.10;79.04
84781;BME280;75011;50.086;19.886;2024-03-07T09:52:33;99526.47;;;2.26;79.16
84781;BME280;75011;50.086;19.886;2024-03-07T09:55:35;99533.31;;;2.35;78.63
84781;BME280;75011;50.086;19.886;2024-03-07T09:58:36;99533.84;;;2.45;77.87
84781;BME280;75011;50.086;19.886;2024-03-07T10:01:39;99534.56;;;2.54;77.76
84781;BME280;75011;50.086;19.886;2024-03-07T10:04:43;99535.66;;;2.60;77.77
84781;BME280;75011;50.086;19.886;2024-03-07T10:07:44;99536.91;;;2.64;77.58
84781;BME280;75011;50.086;19.886;2024-03-07T10:10:46;99534.84;;;2.80;77.26
84781;BME280;75011;50.086;19.886;2024-03-07T10:13:49;99531.41;;;2.86;76.97
84781;BME280;75011;50.086;19.886;2024-03-07T10:16:49;99539.63;;;2.91;77.08
84781;BME280;75011;50.086;19.886;2024-03-07T10:19:49;99538.72;;;2.99;76.90
84781;BME280;75011;50.086;19.886;2024-03-07T10:22:50;99530.19;;;3.03;76.63
84781;BME280;75011;50.086;19.886;2024-03-07T10:25:52;99527.78;;;3.08;76.00
84781;BME280;75011;50.086;19.886;2024-03-07T10:28:52;99529.81;;;3.06;76.32
84781;BME280;75011;50.086;19.886;2024-03-07T10:31:53;99533.22;;;3.00;76.39
84781;BME280;75011;50.086;19.886;2024-03-07T10:34:53;99537.31;;;3.03;76.29
84781;BME280;75011;50.086;19.886;2024-03-07T10:37:55;99532.28;;;3.14;76.13
84781;BME280;75011;50.086;19.886;2024-03-07T10:40:59;99535.69;;;3.30;75.44
84781;BME280;75011;50.086;19.886;2024-03-07T10:44:03;99529.88;;;3.41;75.31
84781;BME280;75011;50.086;19.886;2024-03-07T10:47:04;99538.41;;;3.36;75.18
84781;BME280;75011;50.086;19.886;2024-03-07T10:50:10;99545.78;;;3.34;75.27
84781;BME280;75011;50.086;19.886;2024-03-07T10:53:19;99542.31;;;3.40;75.15
84781;BME280;75011;50.086;19.886;2024-03-07T10:56:31;99539.66;;;3.40;74.95
84781;BME280;75011;50.086;19.886;2024-03-07T10:59:38;99526.38;;;3.40;74.97
84781;BME280;75011;50.086;19.886;2024-03-07T11:02:44;99532.41;;;3.28;75.31
84781;BME280;75011;50.086;19.886;2024-03-07T11:05:46;99538.50;;;3.22;75.19
84781;BME280;75011;50.086;19.886;2024-03-07T11:08:47;99534.25;;;3.27;75.19
84781;BME280;75011;50.086;19.886;2024-03-07T11:11:49;99533.59;;;3.18;75.23
84781;BME280;75011;50.086;19.886;2024-03-07T11:14:50;99535.91;;;3.28;75.16
84781;BME280;75011;50.086;19.886;2024-03-07T11:17:51;99525.53;;;3.33;74.68
84781;BME280;75011;50.086;19.886;2024-03-07T11:20:53;99530.66;;;3.35;74.63
84781;BME280;75011;50.086;19.886;2024-03-07T11:23:53;99518.91;;;3.50;74.38
84781;BME280;75011;50.086;19.886;2024-03-07T11:26:56;99523.09;;;3.66;73.69
84781;BME280;75011;50.086;19.886;2024-03-07T11:30:04;99523.72;;;3.68;73.88
84781;BME280;75011;50.086;19.886;2024-03-07T11:33:07;99523.31;;;3.64;73.69
84781;BME280;75011;50.086;19.886;2024-03-07T11:36:08;99536.16;;;3.61;73.98
84781;BME280;75011;50.086;19.886;2024-03-07T11:39:41;99535.19;;;3.41;74.52
84781;BME280;75011;50.086;19.886;2024-03-07T11:42:44;99531.81;;;3.53;74.56
84781;BME280;75011;50.086;19.886;2024-03-07T11:45:46;99538.63;;;3.35;74.71
84781;BME280;75011;50.086;19.886;2024-03-07T11:48:46;99537.47;;;3.23;74.76
84781;BME280;75011;50.086;19.886;2024-03-07T11:51:46;99532.13;;;3.16;74.88
84781;BME280;75011;50.086;19.886;2024-03-07T11:54:47;99535.91;;;3.07;75.06
84781;BME280;75011;50.086;19.886;2024-03-07T11:57:49;99535.44;;;3.25;74.57
84781;BME280;75011;50.086;19.886;2024-03-07T12:00:51;99537.84;;;3.41;73.88
84781;BME280;75011;50.086;19.886;2024-03-07T12:03:51;99532.66;;;3.33;74.01
84781;BME280;75011;50.086;19.886;2024-03-07T12:06:52;99531.69;;;3.40;74.14
84781;BME280;75011;50.086;19.886;2024-03-07T12:09:52;99541.53;;;3.40;74.16
84781;BME280;75011;50.086;19.886;2024-03-07T12:12:54;99536.47;;;3.24;74.44
84781;BME280;75011;50.086;19.886;2024-03-07T12:15:54;99533.00;;;3.23;74.54
84781;BME280;75011;50.086;19.886;2024-03-07T12:18:55;99533.94;;;3.37;74.18
84781;BME280;75011;50.086;19.886;2024-03-07T12:21:56;99536.91;;;3.27;74.21
84781;BME280;75011;50.086;19.886;2024-03-07T12:25:00;99538.38;;;3.08;74.79
84781;BME280;75011;50.086;19.886;2024-03-07T12:28:07;99536.81;;;2.93;75.33
84781;BME280;75011;50.086;19.886;2024-03-07T12:31:08;99535.72;;;2.87;75.19
84781;BME280;75011;50.086;19.886;2024-03-07T12:34:08;99543.91;;;2.86;75.19
84781;BME280;75011;50.086;19.886;2024-03-07T12:37:09;99546.84;;;2.97;75.01
84781;BME280;75011;50.086;19.886;2024-03-07T12:40:12;99535.66;;;3.02;74.65
84781;BME280;75011;50.086;19.886;2024-03-07T12:43:16;99540.47;;;3.13;74.28
84781;BME280;75011;50.086;19.886;2024-03-07T12:46:17;99542.78;;;3.23;74.28
84781;BME280;75011;50.086;19.886;2024-03-07T12:49:17;99547.84;;;3.17;74.20
84781;BME280;75011;50.086;19.886;2024-03-07T12:52:18;99553.03;;;3.04;74.45
84781;BME280;75011;50.086;19.886;2024-03-07T12:55:18;99545.16;;;2.90;75.00
84781;BME280;75011;50.086;19.886;2024-03-07T12:58:20;99546.09;;;3.03;74.95
84781;BME280;75011;50.086;19.886;2024-03-07T13:01:21;99546.22;;;3.16;74.68
84781;BME280;75011;50.086;19.886;2024-03-07T13:04:21;99553.50;;;3.29;74.28
84781;BME280;75011;50.086;19.886;2024-03-07T13:07:22;99549.66;;;3.38;73.94
84781;BME280;75011;50.086;19.886;2024-03-07T13:10:22;99547.84;;;3.66;73.48
84781;BME280;75011;50.086;19.886;2024-03-07T13:13:24;99538.00;;;3.95;72.86
84781;BME280;75011;50.086;19.886;2024-03-07T13:16:25;99541.97;;;4.12;72.60
84781;BME280;75011;50.086;19.886;2024-03-07T13:19:25;99534.75;;;3.99;72.58
84781;BME280;75011;50.086;19.886;2024-03-07T13:22:26;99541.09;;;3.98;72.31
84781;BME280;75011;50.086;19.886;2024-03-07T13:25:27;99539.91;;;4.01;72.55
84781;BME280;75011;50.086;19.886;2024-03-07T13:28:29;99534.00;;;4.12;72.17
84781;BME280;75011;50.086;19.886;2024-03-07T13:31:30;99538.09;;;4.14;72.21
84781;BME280;75011;50.086;19.886;2024-03-07T13:34:30;99533.91;;;4.39;71.18
84781;BME280;75011;50.086;19.886;2024-03-07T13:37:31;99540.09;;;4.47;71.19
84781;BME280;75011;50.086;19.886;2024-03-07T13:40:31;99542.56;;;4.48;70.96
84781;BME280;75011;50.086;19.886;2024-03-07T13:43:33;99537.28;;;4.61;70.07
84781;BME280;75011;50.086;19.886;2024-03-07T13:46:33;99533.19;;;4.59;70.54
84781;BME280;75011;50.086;19.886;2024-03-07T13:49:34;99533.41;;;4.57;70.15
84781;BME280;75011;50.086;19.886;2024-03-07T13:52:34;99530.56;;;4.72;69.63
84781;BME280;75011;50.086;19.886;2024-03-07T13:55:41;99528.34;;;4.88;69.52
84781;BME280;75011;50.086;19.886;2024-03-07T13:59:10;99528.16;;;4.96;69.28
84781;BME280;75011;50.086;19.886;2024-03-07T14:02:41;99525.09;;;5.06;68.46
84781;BME280;75011;50.086;19.886;2024-03-07T14:06:05;99523.44;;;5.12;68.00
84781;BME280;75011;50.086;19.886;2024-03-07T14:09:30;99518.72;;;5.14;68.72
84781;BME280;75011;50.086;19.886;2024-03-07T14:12:47;99523.25;;;5.33;67.86
84781;BME280;75011;50.086;19.886;2024-03-07T14:16:17;99527.97;;;5.50;67.31
84781;BME280;75011;50.086;19.886;2024-03-07T14:19:49;99522.84;;;5.68;67.04
84781;BME280;75011;50.086;19.886;2024-03-07T14:23:08;99521.78;;;5.96;65.79
84781;BME280;75011;50.086;19.886;2024-03-07T14:29:52;99511.00;;;6.35;64.58
84781;BME280;75011;50.086;19.886;2024-03-07T14:33:01;99512.13;;;6.59;64.08
84781;BME280;75011;50.086;19.886;2024-03-07T14:36:04;99506.31;;;6.62;63.51
84781;BME280;75011;50.086;19.886;2024-03-07T14:39:05;99508.69;;;6.45;63.78
84781;BME280;75011;50.086;19.886;2024-03-07T14:42:06;99512.00;;;6.34;64.27
84781;BME280;75011;50.086;19.886;2024-03-07T14:45:07;99504.03;;;6.21;64.45
84781;BME280;75011;50.086;19.886;2024-03-07T14:48:11;99508.44;;;6.02;64.31
84781;BME280;75011;50.086;19.886;2024-03-07T14:51:13;99502.91;;;5.78;64.70
84781;BME280;75011;50.086;19.886;2024-03-07T14:54:14;99499.47;;;5.51;65.86
84781;BME280;75011;50.086;19.886;2024-03-07T14:57:14;99506.25;;;5.40;65.78
84781;BME280;75011;50.086;19.886;2024-03-07T15:00:15;99497.66;;;5.38;65.19
84781;BME280;75011;50.086;19.886;2024-03-07T15:03:17;99506.47;;;5.26;65.61
84781;BME280;75011;50.086;19.886;2024-03-07T15:06:17;99497.88;;;5.24;65.22
84781;BME280;75011;50.086;19.886;2024-03-07T15:09:18;99503.78;;;5.32;65.21
84781;BME280;75011;50.086;19.886;2024-03-07T15:12:18;99490.28;;;5.34;65.31
84781;BME280;75011;50.086;19.886;2024-03-07T15:15:19;99492.13;;;5.33;65.01
84781;BME280;75011;50.086;19.886;2024-03-07T15:18:21;99495.38;;;5.35;64.14
84781;BME280;75011;50.086;19.886;2024-03-07T15:21:21;99496.44;;;5.21;64.52
84781;BME280;75011;50.086;19.886;2024-03-07T15:24:22;99498.06;;;5.22;64.51
84781;BME280;75011;50.086;19.886;2024-03-07T15:27:22;99494.75;;;5.14;65.14
84781;BME280;75011;50.086;19.886;2024-03-07T15:30:24;99502.13;;;4.92;65.64
84781;BME280;75011;50.086;19.886;2024-03-07T15:33:26;99495.97;;;4.85;65.51
84781;BME280;75011;50.086;19.886;2024-03-07T15:36:26;99501.28;;;4.78;65.38
84781;BME280;75011;50.086;19.886;2024-03-07T15:39:28;99503.72;;;4.73;65.29
84781;BME280;75011;50.086;19.886;2024-03-07T15:42:28;99497.38;;;4.68;65.99
84781;BME280;75011;50.086;19.886;2024-03-07T15:45:29;99505.78;;;4.65;65.80
84781;BME280;75011;50.086;19.886;2024-03-07T15:48:30;99502.47;;;4.63;65.42
84781;BME280;75011;50.086;19.886;2024-03-07T15:51:31;99506.13;;;4.49;66.11
84781;BME280;75011;50.086;19.886;2024-03-07T15:54:31;99501.19;;;4.45;65.59
84781;BME280;75011;50.086;19.886;2024-03-07T15:57:32;99513.06;;;4.43;65.65
84781;BME280;75011;50.086;19.886;2024-03-07T16:00:32;99511.63;;;4.34;65.82
84781;BME280;75011;50.086;19.886;2024-03-07T16:03:34;99520.16;;;4.29;66.57
84781;BME280;75011;50.086;19.886;2024-03-07T16:06:35;99514.81;;;4.16;66.50